sensor_id;sensor_type;location;lat;lon;timestamp;temperature;humidity
69328;DHT22;56472;52.114;5.492;2023-05-10T00:00:02;22.30;62.90
69328;DHT22;56472;52.114;5.492;2023-05-10T00:02:38;22.40;63.00
69328;DHT22;56472;52.114;5.492;2023-05-10T00:05:06;22.40;63.00
69328;DHT22;56472;52.114;5.492;2023-05-10T00:07:34;22.30;62.90
69328;DHT22;56472;52.114;5.492;2023-05-10T00:10:00;22.40;63.00
69328;DHT22;56472;52.114;5.492;2023-05-10T00:12:27;22.40;62.90
69328;DHT22;56472;52.114;5.492;2023-05-10T00:14:54;22.30;62.80
69328;DHT22;56472;52.114;5.492;2023-05-10T00:17:21;22.30;62.90
69328;DHT22;56472;52.114;5.492;2023-05-10T00:19:48;22.30;62.90
69328;DHT22;56472;52.114;5.492;2023-05-10T00:22:15;22.30;62.90
69328;DHT22;56472;52.114;5.492;2023-05-10T00:24:42;22.30;62.90
69328;DHT22;56472;52.114;5.492;2023-05-10T00:27:08;22.30;62.90
69328;DHT22;56472;52.114;5.492;2023-05-10T00:29:35;22.30;63.00
69328;DHT22;56472;52.114;5.492;2023-05-10T00:32:02;22.30;63.00
69328;DHT22;56472;52.114;5.492;2023-05-10T00:34:29;22.30;63.00
69328;DHT22;56472;52.114;5.492;2023-05-10T00:36:57;22.30;63.00
69328;DHT22;56472;52.114;5.492;2023-05-10T00:39:23;22.30;63.00
69328;DHT22;56472;52.114;5.492;2023-05-10T00:41:50;22.30;63.00
69328;DHT22;56472;52.114;5.492;2023-05-10T00:44:18;22.30;63.00
69328;DHT22;56472;52.114;5.492;2023-05-10T00:46:45;22.30;63.10
69328;DHT22;56472;52.114;5.492;2023-05-10T00:49:12;22.30;63.00
69328;DHT22;56472;52.114;5.492;2023-05-10T00:51:39;22.30;63.00
69328;DHT22;56472;52.114;5.492;2023-05-10T00:54:11;22.30;63.90
69328;DHT22;56472;52.114;5.492;2023-05-10T00:56:39;22.30;63.10
69328;DHT22;56472;52.114;5.492;2023-05-10T00:59:08;22.20;63.00
69328;DHT22;56472;52.114;5.492;2023-05-10T01:01:36;22.20;63.00
69328;DHT22;56472;52.114;5.492;2023-05-10T01:04:03;22.20;63.00
69328;DHT22;56472;52.114;5.492;2023-05-10T01:06:30;22.20;63.10
69328;DHT22;56472;52.114;5.492;2023-05-10T01:08:57;22.20;63.00
69328;DHT22;56472;52.114;5.492;2023-05-10T01:11:24;22.30;63.10
69328;DHT22;56472;52.114;5.492;2023-05-10T01:13:56;22.20;63.10
69328;DHT22;56472;52.114;5.492;2023-05-10T01:16:24;22.20;63.00
69328;DHT22;56472;52.114;5.492;2023-05-10T01:18:52;22.20;63.10
69328;DHT22;56472;52.114;5.492;2023-05-10T01:24:12;22.20;63.10
69328;DHT22;56472;52.114;5.492;2023-05-10T01:36:01;22.20;63.20
69328;DHT22;56472;52.114;5.492;2023-05-10T01:38:50;22.20;63.30
69328;DHT22;56472;52.114;5.492;2023-05-10T01:46:39;22.10;63.30
69328;DHT22;56472;52.114;5.492;2023-05-10T01:49:16;22.10;63.40
69328;DHT22;56472;52.114;5.492;2023-05-10T01:51:50;22.10;63.30
69328;DHT22;56472;52.114;5.492;2023-05-10T01:54:20;22.10;63.40
69328;DHT22;56472;52.114;5.492;2023-05-10T01:56:52;22.10;63.40
69328;DHT22;56472;52.114;5.492;2023-05-10T01:59:22;22.10;63.40
69328;DHT22;56472;52.114;5.492;2023-05-10T02:01:52;22.10;63.40
69328;DHT22;56472;52.114;5.492;2023-05-10T02:04:22;22.10;63.40
69328;DHT22;56472;52.114;5.492;2023-05-10T02:06:51;22.10;63.30
69328;DHT22;56472;52.114;5.492;2023-05-10T02:09:20;22.10;63.30
69328;DHT22;56472;52.114;5.492;2023-05-10T02:11:50;22.10;63.40
69328;DHT22;56472;52.114;5.492;2023-05-10T02:14:18;22.10;63.30
69328;DHT22;56472;52.114;5.492;2023-05-10T02:16:46;22.10;63.30
69328;DHT22;56472;52.114;5.492;2023-05-10T02:19:14;22.10;63.30
69328;DHT22;56472;52.114;5.492;2023-05-10T02:21:42;22.10;63.40
69328;DHT22;56472;52.114;5.492;2023-05-10T02:24:11;22.10;63.30
69328;DHT22;56472;52.114;5.492;2023-05-10T02:26:38;22.10;63.30
69328;DHT22;56472;52.114;5.492;2023-05-10T02:29:05;22.10;63.30
69328;DHT22;56472;52.114;5.492;2023-05-10T02:31:33;22.10;63.30
69328;DHT22;56472;52.114;5.492;2023-05-10T02:34:03;22.10;63.30
69328;DHT22;56472;52.114;5.492;2023-05-10T02:36:30;22.10;63.30
69328;DHT22;56472;52.114;5.492;2023-05-10T02:38:59;22.10;63.30
69328;DHT22;56472;52.114;5.492;2023-05-10T02:41:27;22.10;63.30
69328;DHT22;56472;52.114;5.492;2023-05-10T02:43:57;22.10;63.30
69328;DHT22;56472;52.114;5.492;2023-05-10T02:46:25;22.10;63.30
69328;DHT22;56472;52.114;5.492;2023-05-10T02:48:52;22.10;63.30
69328;DHT22;56472;52.114;5.492;2023-05-10T02:51:20;22.10;63.30
69328;DHT22;56472;52.114;5.492;2023-05-10T02:53:51;22.10;63.30
69328;DHT22;56472;52.114;5.492;2023-05-10T02:56:31;22.10;63.30
69328;DHT22;56472;52.114;5.492;2023-05-10T02:58:59;22.10;63.20
69328;DHT22;56472;52.114;5.492;2023-05-10T03:01:26;22.10;63.30
69328;DHT22;56472;52.114;5.492;2023-05-10T03:03:53;22.10;63.30
69328;DHT22;56472;52.114;5.492;2023-05-10T03:06:20;22.10;63.30
69328;DHT22;56472;52.114;5.492;2023-05-10T03:08:47;22.10;63.20
69328;DHT22;56472;52.114;5.492;2023-05-10T03:11:28;22.10;63.20
69328;DHT22;56472;52.114;5.492;2023-05-10T03:17:04;22.10;63.20
69328;DHT22;56472;52.114;5.492;2023-05-10T03:19:43;22.00;63.20
69328;DHT22;56472;52.114;5.492;2023-05-10T03:22:13;22.00;63.20
69328;DHT22;56472;52.114;5.492;2023-05-10T03:24:44;22.00;64.10
69328;DHT22;56472;52.114;5.492;2023-05-10T03:27:12;22.00;63.10
69328;DHT22;56472;52.114;5.492;2023-05-10T03:29:42;22.00;63.10
69328;DHT22;56472;52.114;5.492;2023-05-10T03:32:09;22.00;63.10
69328;DHT22;56472;52.114;5.492;2023-05-10T03:34:41;22.00;63.10
69328;DHT22;56472;52.114;5.492;2023-05-10T03:37:09;22.00;63.10
69328;DHT22;56472;52.114;5.492;2023-05-10T03:39:36;22.00;63.00
69328;DHT22;56472;52.114;5.492;2023-05-10T03:42:06;22.00;63.00
69328;DHT22;56472;52.114;5.492;2023-05-10T03:44:33;22.00;63.00
69328;DHT22;56472;52.114;5.492;2023-05-10T03:47:00;22.00;63.00
69328;DHT22;56472;52.114;5.492;2023-05-10T03:49:27;22.00;62.90
69328;DHT22;56472;52.114;5.492;2023-05-10T03:51:54;22.00;62.90
69328;DHT22;56472;52.114;5.492;2023-05-10T03:54:21;22.00;63.00
69328;DHT22;56472;52.114;5.492;2023-05-10T03:56:48;22.00;62.90
69328;DHT22;56472;52.114;5.492;2023-05-10T03:59:16;22.00;62.90
69328;DHT22;56472;52.114;5.492;2023-05-10T04:01:43;22.00;62.80
69328;DHT22;56472;52.114;5.492;2023-05-10T04:04:10;22.00;62.80
69328;DHT22;56472;52.114;5.492;2023-05-10T04:06:38;22.00;62.80
69328;DHT22;56472;52.114;5.492;2023-05-10T04:09:04;22.00;62.80
69328;DHT22;56472;52.114;5.492;2023-05-10T04:11:31;22.00;62.80
69328;DHT22;56472;52.114;5.492;2023-05-10T04:13:58;22.00;62.80
69328;DHT22;56472;52.114;5.492;2023-05-10T04:16:25;22.00;62.80
69328;DHT22;56472;52.114;5.492;2023-05-10T04:18:52;22.00;62.80
69328;DHT22;56472;52.114;5.492;2023-05-10T04:21:19;22.00;62.80
69328;DHT22;56472;52.114;5.492;2023-05-10T04:23:46;22.00;62.80
69328;DHT22;56472;52.114;5.492;2023-05-10T04:26:13;22.00;62.80
69328;DHT22;56472;52.114;5.492;2023-05-10T04:28:40;22.00;62.70
69328;DHT22;56472;52.114;5.492;2023-05-10T04:31:08;22.00;62.80
69328;DHT22;56472;52.114;5.492;2023-05-10T04:33:36;22.00;62.80
69328;DHT22;56472;52.114;5.492;2023-05-10T04:36:03;22.00;62.70
69328;DHT22;56472;52.114;5.492;2023-05-10T04:38:30;21.90;62.70
69328;DHT22;56472;52.114;5.492;2023-05-10T04:41:10;22.00;62.70
69328;DHT22;56472;52.114;5.492;2023-05-10T04:43:37;22.00;62.70
69328;DHT22;56472;52.114;5.492;2023-05-10T04:46:05;21.90;62.60
69328;DHT22;56472;52.114;5.492;2023-05-10T04:48:32;21.90;62.70
69328;DHT22;56472;52.114;5.492;2023-05-10T04:50:59;21.90;62.60
69328;DHT22;56472;52.114;5.492;2023-05-10T04:53:26;21.90;62.70
69328;DHT22;56472;52.114;5.492;2023-05-10T04:55:53;21.90;62.70
69328;DHT22;56472;52.114;5.492;2023-05-10T04:58:20;21.90;62.70
69328;DHT22;56472;52.114;5.492;2023-05-10T05:00:47;21.90;62.70
69328;DHT22;56472;52.114;5.492;2023-05-10T05:03:14;21.90;62.70
69328;DHT22;56472;52.114;5.492;2023-05-10T05:05:41;21.90;62.70
69328;DHT22;56472;52.114;5.492;2023-05-10T05:08:08;21.90;62.70
69328;DHT22;56472;52.114;5.492;2023-05-10T05:10:35;21.90;62.70
69328;DHT22;56472;52.114;5.492;2023-05-10T05:13:02;21.90;62.70
69328;DHT22;56472;52.114;5.492;2023-05-10T05:15:29;21.90;62.70
69328;DHT22;56472;52.114;5.492;2023-05-10T05:17:57;21.90;62.70
69328;DHT22;56472;52.114;5.492;2023-05-10T05:20:24;21.90;62.70
69328;DHT22;56472;52.114;5.492;2023-05-10T05:22:51;21.90;62.70
69328;DHT22;56472;52.114;5.492;2023-05-10T05:25:18;21.90;62.70
69328;DHT22;56472;52.114;5.492;2023-05-10T05:27:45;21.90;62.60
69328;DHT22;56472;52.114;5.492;2023-05-10T05:30:12;21.90;62.70
69328;DHT22;56472;52.114;5.492;2023-05-10T05:32:39;21.90;62.70
69328;DHT22;56472;52.114;5.492;2023-05-10T05:35:06;21.90;62.70
69328;DHT22;56472;52.114;5.492;2023-05-10T05:37:33;21.90;62.70
69328;DHT22;56472;52.114;5.492;2023-05-10T05:40:00;21.90;62.80
69328;DHT22;56472;52.114;5.492;2023-05-10T05:42:28;21.90;62.80
69328;DHT22;56472;52.114;5.492;2023-05-10T05:44:55;21.90;62.80
69328;DHT22;56472;52.114;5.492;2023-05-10T05:47:22;21.90;62.80
69328;DHT22;56472;52.114;5.492;2023-05-10T05:49:48;21.90;62.90
69328;DHT22;56472;52.114;5.492;2023-05-10T05:52:15;22.00;63.00
69328;DHT22;56472;52.114;5.492;2023-05-10T05:54:42;21.90;62.90
69328;DHT22;56472;52.114;5.492;2023-05-10T05:57:09;21.90;63.00
69328;DHT22;56472;52.114;5.492;2023-05-10T05:59:36;22.00;63.10
69328;DHT22;56472;52.114;5.492;2023-05-10T06:02:09;21.90;63.00
69328;DHT22;56472;52.114;5.492;2023-05-10T06:04:35;21.90;63.10
69328;DHT22;56472;52.114;5.492;2023-05-10T06:07:02;21.90;63.10
69328;DHT22;56472;52.114;5.492;2023-05-10T06:09:29;21.90;63.10
69328;DHT22;56472;52.114;5.492;2023-05-10T06:11:56;21.90;63.20
69328;DHT22;56472;52.114;5.492;2023-05-10T06:14:23;21.90;63.20
69328;DHT22;56472;52.114;5.492;2023-05-10T06:16:50;22.00;63.30
69328;DHT22;56472;52.114;5.492;2023-05-10T06:19:17;22.00;63.40
69328;DHT22;56472;52.114;5.492;2023-05-10T06:21:44;21.90;63.30
69328;DHT22;56472;52.114;5.492;2023-05-10T06:24:11;22.00;64.30
69328;DHT22;56472;52.114;5.492;2023-05-10T06:26:38;22.00;63.40
69328;DHT22;56472;52.114;5.492;2023-05-10T06:29:05;22.00;63.40
69328;DHT22;56472;52.114;5.492;2023-05-10T06:31:32;22.00;63.40
69328;DHT22;56472;52.114;5.492;2023-05-10T06:33:59;21.90;63.30
69328;DHT22;56472;52.114;5.492;2023-05-10T06:36:26;22.00;63.40
69328;DHT22;56472;52.114;5.492;2023-05-10T06:38:53;22.00;63.40
69328;DHT22;56472;52.114;5.492;2023-05-10T06:41:21;22.00;63.40
69328;DHT22;56472;52.114;5.492;2023-05-10T06:43:50;22.00;63.40
69328;DHT22;56472;52.114;5.492;2023-05-10T06:46:17;22.00;63.40
69328;DHT22;56472;52.114;5.492;2023-05-10T06:48:44;22.00;63.40
69328;DHT22;56472;52.114;5.492;2023-05-10T06:51:11;22.00;63.40
69328;DHT22;56472;52.114;5.492;2023-05-10T06:53:38;22.00;63.30
69328;DHT22;56472;52.114;5.492;2023-05-10T06:56:05;22.00;63.30
69328;DHT22;56472;52.114;5.492;2023-05-10T06:58:32;22.00;63.30
69328;DHT22;56472;52.114;5.492;2023-05-10T07:01:03;22.00;63.20
69328;DHT22;56472;52.114;5.492;2023-05-10T07:03:31;22.00;63.20
69328;DHT22;56472;52.114;5.492;2023-05-10T07:06:02;22.00;63.20
69328;DHT22;56472;52.114;5.492;2023-05-10T07:08:41;22.00;63.10
69328;DHT22;56472;52.114;5.492;2023-05-10T07:11:08;22.00;63.00
69328;DHT22;56472;52.114;5.492;2023-05-10T07:13:35;22.00;63.00
69328;DHT22;56472;52.114;5.492;2023-05-10T07:16:03;22.00;62.90
69328;DHT22;56472;52.114;5.492;2023-05-10T07:18:30;22.00;62.90
69328;DHT22;56472;52.114;5.492;2023-05-10T07:20:57;22.10;62.90
69328;DHT22;56472;52.114;5.492;2023-05-10T07:23:24;22.10;62.90
69328;DHT22;56472;52.114;5.492;2023-05-10T07:25:51;22.10;62.80
69328;DHT22;56472;52.114;5.492;2023-05-10T07:28:19;22.10;62.80
69328;DHT22;56472;52.114;5.492;2023-05-10T07:30:46;22.10;63.70
69328;DHT22;56472;52.114;5.492;2023-05-10T07:33:14;22.10;62.80
69328;DHT22;56472;52.114;5.492;2023-05-10T07:35:42;22.10;62.70
69328;DHT22;56472;52.114;5.492;2023-05-10T07:38:09;22.10;62.60
69328;DHT22;56472;52.114;5.492;2023-05-10T07:40:38;22.10;62.60
69328;DHT22;56472;52.114;5.492;2023-05-10T07:43:05;22.10;62.50
69328;DHT22;56472;52.114;5.492;2023-05-10T07:45:33;22.10;62.50
69328;DHT22;56472;52.114;5.492;2023-05-10T07:48:00;22.10;62.50
69328;DHT22;56472;52.114;5.492;2023-05-10T07:50:27;22.10;62.50
69328;DHT22;56472;52.114;5.492;2023-05-10T07:52:54;22.10;62.40
69328;DHT22;56472;52.114;5.492;2023-05-10T07:55:21;22.10;62.40
69328;DHT22;56472;52.114;5.492;2023-05-10T07:57:48;22.10;62.40
69328;DHT22;56472;52.114;5.492;2023-05-10T08:00:19;22.10;62.30
69328;DHT22;56472;52.114;5.492;2023-05-10T08:02:47;22.10;62.30
69328;DHT22;56472;52.114;5.492;2023-05-10T08:05:14;22.10;62.20
69328;DHT22;56472;52.114;5.492;2023-05-10T08:07:42;22.10;62.20
69328;DHT22;56472;52.114;5.492;2023-05-10T08:10:09;22.20;62.20
69328;DHT22;56472;52.114;5.492;2023-05-10T08:12:38;22.20;62.10
69328;DHT22;56472;52.114;5.492;2023-05-10T08:15:06;22.20;62.10
69328;DHT22;56472;52.114;5.492;2023-05-10T08:17:33;22.20;62.00
69328;DHT22;56472;52.114;5.492;2023-05-10T08:20:00;22.20;62.10
69328;DHT22;56472;52.114;5.492;2023-05-10T08:22:28;22.20;62.10
69328;DHT22;56472;52.114;5.492;2023-05-10T08:24:55;22.20;62.10
69328;DHT22;56472;52.114;5.492;2023-05-10T08:27:22;22.20;62.00
69328;DHT22;56472;52.114;5.492;2023-05-10T08:29:49;22.20;61.90
69328;DHT22;56472;52.114;5.492;2023-05-10T08:32:17;22.20;61.90
69328;DHT22;56472;52.114;5.492;2023-05-10T08:34:44;22.30;61.70
69328;DHT22;56472;52.114;5.492;2023-05-10T08:37:10;22.20;61.60
69328;DHT22;56472;52.114;5.492;2023-05-10T08:39:40;22.30;61.50
69328;DHT22;56472;52.114;5.492;2023-05-10T08:42:07;22.30;61.30
69328;DHT22;56472;52.114;5.492;2023-05-10T08:44:36;22.30;61.20
69328;DHT22;56472;52.114;5.492;2023-05-10T08:47:06;22.30;61.10
69328;DHT22;56472;52.114;5.492;2023-05-10T08:49:37;22.20;61.00
69328;DHT22;56472;52.114;5.492;2023-05-10T08:52:05;22.30;61.00
69328;DHT22;56472;52.114;5.492;2023-05-10T08:54:34;22.30;60.90
69328;DHT22;56472;52.114;5.492;2023-05-10T08:57:01;22.30;60.90
69328;DHT22;56472;52.114;5.492;2023-05-10T08:59:28;22.30;60.90
69328;DHT22;56472;52.114;5.492;2023-05-10T09:01:59;22.30;60.90
69328;DHT22;56472;52.114;5.492;2023-05-10T09:04:26;22.30;60.90
69328;DHT22;56472;52.114;5.492;2023-05-10T09:06:54;22.30;60.80
69328;DHT22;56472;52.114;5.492;2023-05-10T09:09:21;22.30;60.70
69328;DHT22;56472;52.114;5.492;2023-05-10T09:11:48;22.30;60.60
69328;DHT22;56472;52.114;5.492;2023-05-10T09:14:16;22.30;60.60
69328;DHT22;56472;52.114;5.492;2023-05-10T09:16:43;22.30;60.60
69328;DHT22;56472;52.114;5.492;2023-05-10T09:19:11;22.30;60.50
69328;DHT22;56472;52.114;5.492;2023-05-10T09:21:38;22.30;60.50
69328;DHT22;56472;52.114;5.492;2023-05-10T09:24:06;22.30;60.50
69328;DHT22;56472;52.114;5.492;2023-05-10T09:26:34;22.40;60.40
69328;DHT22;56472;52.114;5.492;2023-05-10T09:29:02;22.40;60.40
69328;DHT22;56472;52.114;5.492;2023-05-10T09:31:47;22.40;60.50
69328;DHT22;56472;52.114;5.492;2023-05-10T09:34:18;22.50;60.40
69328;DHT22;56472;52.114;5.492;2023-05-10T09:36:56;22.50;60.40
69328;DHT22;56472;52.114;5.492;2023-05-10T09:39:50;22.50;60.40
69328;DHT22;56472;52.114;5.492;2023-05-10T09:42:20;22.50;60.20
69328;DHT22;56472;52.114;5.492;2023-05-10T09:44:47;22.50;60.20
69328;DHT22;56472;52.114;5.492;2023-05-10T09:47:17;22.50;60.10
69328;DHT22;56472;52.114;5.492;2023-05-10T09:49:53;22.60;60.10
69328;DHT22;56472;52.114;5.492;2023-05-10T09:52:22;22.60;60.00
69328;DHT22;56472;52.114;5.492;2023-05-10T09:54:53;22.60;59.90
69328;DHT22;56472;52.114;5.492;2023-05-10T09:57:22;22.60;59.70
69328;DHT22;56472;52.114;5.492;2023-05-10T09:59:49;22.70;59.80
69328;DHT22;56472;52.114;5.492;2023-05-10T10:02:17;22.70;59.80
69328;DHT22;56472;52.114;5.492;2023-05-10T10:04:44;22.70;59.70
69328;DHT22;56472;52.114;5.492;2023-05-10T10:07:11;22.70;59.50
69328;DHT22;56472;52.114;5.492;2023-05-10T10:09:38;22.70;59.50
69328;DHT22;56472;52.114;5.492;2023-05-10T10:12:05;22.70;59.40
69328;DHT22;56472;52.114;5.492;2023-05-10T10:14:33;22.70;59.30
69328;DHT22;56472;52.114;5.492;2023-05-10T10:17:01;22.70;59.30
69328;DHT22;56472;52.114;5.492;2023-05-10T10:19:33;22.70;59.20
69328;DHT22;56472;52.114;5.492;2023-05-10T10:22:00;22.70;60.10
69328;DHT22;56472;52.114;5.492;2023-05-10T10:24:27;22.60;59.10
69328;DHT22;56472;52.114;5.492;2023-05-10T10:26:59;22.60;59.10
69328;DHT22;56472;52.114;5.492;2023-05-10T10:30:01;22.60;59.00
69328;DHT22;56472;52.114;5.492;2023-05-10T10:35:03;22.60;59.10
69328;DHT22;56472;52.114;5.492;2023-05-10T10:37:44;22.60;59.20
69328;DHT22;56472;52.114;5.492;2023-05-10T10:40:27;22.60;59.20
69328;DHT22;56472;52.114;5.492;2023-05-10T10:42:56;22.60;59.20
69328;DHT22;56472;52.114;5.492;2023-05-10T10:45:24;22.60;59.30
69328;DHT22;56472;52.114;5.492;2023-05-10T10:48:20;22.60;59.30
69328;DHT22;56472;52.114;5.492;2023-05-10T10:50:47;22.70;59.30
69328;DHT22;56472;52.114;5.492;2023-05-10T10:53:14;22.70;59.40
69328;DHT22;56472;52.114;5.492;2023-05-10T10:55:48;22.70;59.40
69328;DHT22;56472;52.114;5.492;2023-05-10T10:58:30;22.70;59.30
69328;DHT22;56472;52.114;5.492;2023-05-10T11:01:17;22.70;59.20
69328;DHT22;56472;52.114;5.492;2023-05-10T11:06:31;22.70;59.20
69328;DHT22;56472;52.114;5.492;2023-05-10T11:09:00;22.70;59.30
69328;DHT22;56472;52.114;5.492;2023-05-10T11:11:32;22.70;59.20
69328;DHT22;56472;52.114;5.492;2023-05-10T11:14:06;22.70;59.30
69328;DHT22;56472;52.114;5.492;2023-05-10T11:16:43;22.70;59.20
69328;DHT22;56472;52.114;5.492;2023-05-10T11:19:12;22.70;59.10
69328;DHT22;56472;52.114;5.492;2023-05-10T11:22:29;22.70;59.10
69328;DHT22;56472;52.114;5.492;2023-05-10T11:24:37;22.70;59.00
69328;DHT22;56472;52.114;5.492;2023-05-10T11:27:05;22.70;59.00
69328;DHT22;56472;52.114;5.492;2023-05-10T11:29:32;22.70;59.00
69328;DHT22;56472;52.114;5.492;2023-05-10T11:31:59;22.70;59.00
69328;DHT22;56472;52.114;5.492;2023-05-10T11:34:31;22.70;59.10
69328;DHT22;56472;52.114;5.492;2023-05-10T11:37:00;22.70;59.30
69328;DHT22;56472;52.114;5.492;2023-05-10T11:39:29;22.80;59.40
69328;DHT22;56472;52.114;5.492;2023-05-10T11:41:57;22.80;59.50
69328;DHT22;56472;52.114;5.492;2023-05-10T11:44:32;22.80;59.50
69328;DHT22;56472;52.114;5.492;2023-05-10T11:47:00;22.80;59.60
69328;DHT22;56472;52.114;5.492;2023-05-10T11:49:27;22.90;59.60
69328;DHT22;56472;52.114;5.492;2023-05-10T11:52:07;22.90;59.70
69328;DHT22;56472;52.114;5.492;2023-05-10T11:54:34;22.90;59.60
69328;DHT22;56472;52.114;5.492;2023-05-10T11:57:01;23.00;59.70
69328;DHT22;56472;52.114;5.492;2023-05-10T11:59:29;23.00;59.60
69328;DHT22;56472;52.114;5.492;2023-05-10T12:01:56;23.00;59.50
69328;DHT22;56472;52.114;5.492;2023-05-10T12:04:23;23.00;59.40
69328;DHT22;56472;52.114;5.492;2023-05-10T12:06:50;23.00;59.40
69328;DHT22;56472;52.114;5.492;2023-05-10T12:09:17;23.10;59.30
69328;DHT22;56472;52.114;5.492;2023-05-10T12:11:57;23.10;59.20
69328;DHT22;56472;52.114;5.492;2023-05-10T12:14:24;23.10;59.00
69328;DHT22;56472;52.114;5.492;2023-05-10T12:16:51;23.10;59.00
69328;DHT22;56472;52.114;5.492;2023-05-10T12:19:21;23.10;58.90
69328;DHT22;56472;52.114;5.492;2023-05-10T12:21:48;23.10;58.90
69328;DHT22;56472;52.114;5.492;2023-05-10T12:24:15;23.10;59.10
69328;DHT22;56472;52.114;5.492;2023-05-10T12:26:47;23.10;59.10
69328;DHT22;56472;52.114;5.492;2023-05-10T12:29:16;23.10;59.20
69328;DHT22;56472;52.114;5.492;2023-05-10T12:31:53;23.10;59.30
69328;DHT22;56472;52.114;5.492;2023-05-10T12:34:35;23.00;59.40
69328;DHT22;56472;52.114;5.492;2023-05-10T12:37:03;23.10;59.60
69328;DHT22;56472;52.114;5.492;2023-05-10T12:39:43;23.10;59.60
69328;DHT22;56472;52.114;5.492;2023-05-10T12:42:11;23.10;59.60
69328;DHT22;56472;52.114;5.492;2023-05-10T12:44:38;23.10;60.50
69328;DHT22;56472;52.114;5.492;2023-05-10T12:47:05;23.10;59.50
69328;DHT22;56472;52.114;5.492;2023-05-10T12:49:32;23.20;59.40
69328;DHT22;56472;52.114;5.492;2023-05-10T12:52:00;23.20;59.20
69328;DHT22;56472;52.114;5.492;2023-05-10T12:54:27;23.20;58.90
69328;DHT22;56472;52.114;5.492;2023-05-10T12:56:54;23.20;58.80
69328;DHT22;56472;52.114;5.492;2023-05-10T12:59:21;23.20;58.60
69328;DHT22;56472;52.114;5.492;2023-05-10T13:01:49;23.20;58.50
69328;DHT22;56472;52.114;5.492;2023-05-10T13:04:16;23.30;58.50
69328;DHT22;56472;52.114;5.492;2023-05-10T13:06:43;23.30;58.60
69328;DHT22;56472;52.114;5.492;2023-05-10T13:09:10;23.30;58.70
69328;DHT22;56472;52.114;5.492;2023-05-10T13:11:36;23.30;58.70
69328;DHT22;56472;52.114;5.492;2023-05-10T13:14:03;23.30;58.70
69328;DHT22;56472;52.114;5.492;2023-05-10T13:16:31;23.30;58.70
69328;DHT22;56472;52.114;5.492;2023-05-10T13:18:58;23.30;58.50
69328;DHT22;56472;52.114;5.492;2023-05-10T13:21:25;23.30;58.40
69328;DHT22;56472;52.114;5.492;2023-05-10T13:23:52;23.30;58.40
69328;DHT22;56472;52.114;5.492;2023-05-10T13:26:19;23.30;59.30
69328;DHT22;56472;52.114;5.492;2023-05-10T13:28:46;23.20;58.30
69328;DHT22;56472;52.114;5.492;2023-05-10T13:31:13;23.20;59.50
69328;DHT22;56472;52.114;5.492;2023-05-10T13:33:40;23.20;58.70
69328;DHT22;56472;52.114;5.492;2023-05-10T13:36:07;23.20;58.80
69328;DHT22;56472;52.114;5.492;2023-05-10T13:38:34;23.10;58.90
69328;DHT22;56472;52.114;5.492;2023-05-10T13:41:01;23.10;59.20
69328;DHT22;56472;52.114;5.492;2023-05-10T13:43:29;23.10;59.40
69328;DHT22;56472;52.114;5.492;2023-05-10T13:45:56;23.00;59.50
69328;DHT22;56472;52.114;5.492;2023-05-10T13:48:22;23.00;59.60
69328;DHT22;56472;52.114;5.492;2023-05-10T13:50:49;23.00;59.60
69328;DHT22;56472;52.114;5.492;2023-05-10T13:53:16;23.00;59.60
69328;DHT22;56472;52.114;5.492;2023-05-10T13:55:43;23.00;59.60
69328;DHT22;56472;52.114;5.492;2023-05-10T13:58:10;23.00;59.60
69328;DHT22;56472;52.114;5.492;2023-05-10T14:00:37;22.90;59.50
69328;DHT22;56472;52.114;5.492;2023-05-10T14:03:04;22.90;59.60
69328;DHT22;56472;52.114;5.492;2023-05-10T14:05:32;22.90;59.60
69328;DHT22;56472;52.114;5.492;2023-05-10T14:07:58;22.90;59.70
69328;DHT22;56472;52.114;5.492;2023-05-10T14:10:26;22.90;59.80
69328;DHT22;56472;52.114;5.492;2023-05-10T14:12:53;22.90;59.80
69328;DHT22;56472;52.114;5.492;2023-05-10T14:15:19;22.80;59.70
69328;DHT22;56472;52.114;5.492;2023-05-10T14:17:47;22.80;59.80
69328;DHT22;56472;52.114;5.492;2023-05-10T14:20:14;22.80;59.80
69328;DHT22;56472;52.114;5.492;2023-05-10T14:22:41;22.80;59.90
69328;DHT22;56472;52.114;5.492;2023-05-10T14:25:08;22.80;60.00
69328;DHT22;56472;52.114;5.492;2023-05-10T14:27:35;22.70;60.50
69328;DHT22;56472;52.114;5.492;2023-05-10T14:30:03;22.70;60.00
69328;DHT22;56472;52.114;5.492;2023-05-10T14:32:30;22.70;60.20
69328;DHT22;56472;52.114;5.492;2023-05-10T14:34:58;22.70;60.30
69328;DHT22;56472;52.114;5.492;2023-05-10T14:37:26;22.70;60.30
69328;DHT22;56472;52.114;5.492;2023-05-10T14:39:53;22.70;60.40
69328;DHT22;56472;52.114;5.492;2023-05-10T14:42:20;22.70;60.40
69328;DHT22;56472;52.114;5.492;2023-05-10T14:44:47;22.70;60.50
69328;DHT22;56472;52.114;5.492;2023-05-10T14:47:14;22.60;60.40
69328;DHT22;56472;52.114;5.492;2023-05-10T14:49:41;22.60;60.40
69328;DHT22;56472;52.114;5.492;2023-05-10T14:52:08;22.60;60.50
69328;DHT22;56472;52.114;5.492;2023-05-10T14:54:35;22.60;60.60
69328;DHT22;56472;52.114;5.492;2023-05-10T14:57:02;22.60;60.60
69328;DHT22;56472;52.114;5.492;2023-05-10T14:59:29;22.60;60.60
69328;DHT22;56472;52.114;5.492;2023-05-10T15:01:56;22.60;60.60
69328;DHT22;56472;52.114;5.492;2023-05-10T15:04:23;22.60;60.60
69328;DHT22;56472;52.114;5.492;2023-05-10T15:06:53;22.60;60.60
69328;DHT22;56472;52.114;5.492;2023-05-10T15:09:25;22.60;60.60
69328;DHT22;56472;52.114;5.492;2023-05-10T15:11:54;22.60;60.70
69328;DHT22;56472;52.114;5.492;2023-05-10T15:14:22;22.60;60.70
69328;DHT22;56472;52.114;5.492;2023-05-10T15:16:49;22.60;60.80
69328;DHT22;56472;52.114;5.492;2023-05-10T15:19:16;22.60;60.70
69328;DHT22;56472;52.114;5.492;2023-05-10T15:21:42;22.60;60.80
69328;DHT22;56472;52.114;5.492;2023-05-10T15:24:11;22.60;60.90
69328;DHT22;56472;52.114;5.492;2023-05-10T15:26:37;22.60;60.90
69328;DHT22;56472;52.114;5.492;2023-05-10T15:29:04;22.60;60.90
69328;DHT22;56472;52.114;5.492;2023-05-10T15:31:31;22.60;60.90
69328;DHT22;56472;52.114;5.492;2023-05-10T15:34:01;22.60;60.90
69328;DHT22;56472;52.114;5.492;2023-05-10T15:36:28;22.60;60.80
69328;DHT22;56472;52.114;5.492;2023-05-10T15:38:55;22.70;60.90
69328;DHT22;56472;52.114;5.492;2023-05-10T15:41:22;22.70;60.90
69328;DHT22;56472;52.114;5.492;2023-05-10T15:43:50;22.70;60.90
69328;DHT22;56472;52.114;5.492;2023-05-10T15:46:17;22.70;60.80
69328;DHT22;56472;52.114;5.492;2023-05-10T15:48:43;22.70;60.70
69328;DHT22;56472;52.114;5.492;2023-05-10T15:51:10;22.70;60.60
69328;DHT22;56472;52.114;5.492;2023-05-10T15:53:38;22.70;60.60
69328;DHT22;56472;52.114;5.492;2023-05-10T15:56:18;22.70;60.60
69328;DHT22;56472;52.114;5.492;2023-05-10T15:58:45;22.70;60.50
69328;DHT22;56472;52.114;5.492;2023-05-10T16:01:12;22.70;60.60
69328;DHT22;56472;52.114;5.492;2023-05-10T16:03:39;22.70;60.60